sensor_id;sensor_type;location;lat;lon;timestamp;P1;durP1;ratioP1;P2;durP2;ratioP2
66127;SDS011;52925;52.436;-1.952;2022-09-09T00:00:18;8.50;;;4.43;;
66127;SDS011;52925;52.436;-1.952;2022-09-09T00:01:42;6.00;;;4.23;;
66127;SDS011;52925;52.436;-1.952;2022-09-09T00:03:12;5.40;;;4.07;;
66127;SDS011;52925;52.436;-1.952;2022-09-09T00:04:38;6.60;;;4.13;;
66127;SDS011;52925;52.436;-1.952;2022-09-09T00:06:02;7.00;;;4.67;;
66127;SDS011;52925;52.436;-1.952;2022-09-09T00:07:34;7.17;;;4.33;;
66127;SDS011;52925;52.436;-1.952;2022-09-09T00:09:04;7.63;;;4.70;;
66127;SDS011;52925;52.436;-1.952;2022-09-09T00:10:32;5.97;;;4.20;;
66127;SDS011;52925;52.436;-1.952;2022-09-09T00:11:56;6.00;;;4.20;;
66127;SDS011;52925;52.436;-1.952;2022-09-09T00:13:23;6.60;;;4.50;;
66127;SDS011;52925;52.436;-1.952;2022-09-09T00:14:51;5.83;;;4.60;;
66127;SDS011;52925;52.436;-1.952;2022-09-09T00:16:14;8.17;;;4.60;;
66127;SDS011;52925;52.436;-1.952;2022-09-09T00:17:39;7.10;;;4.20;;
66127;SDS011;52925;52.436;-1.952;2022-09-09T00:19:05;8.93;;;4.70;;
66127;SDS011;52925;52.436;-1.952;2022-09-09T00:20:35;7.83;;;4.77;;
66127;SDS011;52925;52.436;-1.952;2022-09-09T00:22:04;7.90;;;4.67;;
66127;SDS011;52925;52.436;-1.952;2022-09-09T00:23:33;6.60;;;4.57;;
66127;SDS011;52925;52.436;-1.952;2022-09-09T00:24:57;7.93;;;5.07;;
66127;SDS011;52925;52.436;-1.952;2022-09-09T00:26:30;7.00;;;4.70;;
66127;SDS011;52925;52.436;-1.952;2022-09-09T00:27:58;7.30;;;4.90;;
66127;SDS011;52925;52.436;-1.952;2022-09-09T00:29:20;8.67;;;5.17;;
66127;SDS011;52925;52.436;-1.952;2022-09-09T00:30:47;8.63;;;4.97;;
66127;SDS011;52925;52.436;-1.952;2022-09-09T00:32:11;9.67;;;4.83;;
66127;SDS011;52925;52.436;-1.952;2022-09-09T00:33:33;7.60;;;4.70;;
66127;SDS011;52925;52.436;-1.952;2022-09-09T00:34:54;8.47;;;5.27;;
66127;SDS011;52925;52.436;-1.952;2022-09-09T00:36:20;8.50;;;5.10;;
66127;SDS011;52925;52.436;-1.952;2022-09-09T00:37:44;10.50;;;5.87;;
66127;SDS011;52925;52.436;-1.952;2022-09-09T00:39:08;8.80;;;5.33;;
66127;SDS011;52925;52.436;-1.952;2022-09-09T00:40:34;8.20;;;4.87;;
66127;SDS011;52925;52.436;-1.952;2022-09-09T00:42:01;11.20;;;4.90;;
66127;SDS011;52925;52.436;-1.952;2022-09-09T00:43:32;9.33;;;5.10;;
66127;SDS011;52925;52.436;-1.952;2022-09-09T00:44:56;8.23;;;5.13;;
66127;SDS011;52925;52.436;-1.952;2022-09-09T00:46:23;9.93;;;5.13;;
66127;SDS011;52925;52.436;-1.952;2022-09-09T00:48:03;9.37;;;4.60;;
66127;SDS011;52925;52.436;-1.952;2022-09-09T00:49:32;8.93;;;5.17;;
66127;SDS011;52925;52.436;-1.952;2022-09-09T00:51:06;10.23;;;5.20;;
66127;SDS011;52925;52.436;-1.952;2022-09-09T00:52:35;7.37;;;5.00;;
66127;SDS011;52925;52.436;-1.952;2022-09-09T00:54:14;6.77;;;4.63;;
66127;SDS011;52925;52.436;-1.952;2022-09-09T00:56:00;9.40;;;4.77;;
66127;SDS011;52925;52.436;-1.952;2022-09-09T00:57:28;8.20;;;4.93;;
66127;SDS011;52925;52.436;-1.952;2022-09-09T00:58:52;8.17;;;4.37;;
66127;SDS011;52925;52.436;-1.952;2022-09-09T01:00:21;8.43;;;5.20;;
66127;SDS011;52925;52.436;-1.952;2022-09-09T01:01:42;10.23;;;5.07;;
66127;SDS011;52925;52.436;-1.952;2022-09-09T01:03:10;10.37;;;4.53;;
66127;SDS011;52925;52.436;-1.952;2022-09-09T01:04:44;10.30;;;4.70;;
66127;SDS011;52925;52.436;-1.952;2022-09-09T01:06:11;7.17;;;4.90;;
66127;SDS011;52925;52.436;-1.952;2022-09-09T01:07:37;7.93;;;4.37;;
66127;SDS011;52925;52.436;-1.952;2022-09-09T01:10:40;7.83;;;4.80;;
66127;SDS011;52925;52.436;-1.952;2022-09-09T01:12:09;11.27;;;5.33;;
66127;SDS011;52925;52.436;-1.952;2022-09-09T01:13:34;9.07;;;4.53;;
66127;SDS011;52925;52.436;-1.952;2022-09-09T01:15:02;10.70;;;4.90;;
66127;SDS011;52925;52.436;-1.952;2022-09-09T01:16:30;11.33;;;4.83;;
66127;SDS011;52925;52.436;-1.952;2022-09-09T01:17:53;8.63;;;4.73;;
66127;SDS011;52925;52.436;-1.952;2022-09-09T01:19:20;8.63;;;4.87;;
66127;SDS011;52925;52.436;-1.952;2022-09-09T01:20:59;8.90;;;4.80;;
66127;SDS011;52925;52.436;-1.952;2022-09-09T01:22:26;9.80;;;5.10;;
66127;SDS011;52925;52.436;-1.952;2022-09-09T01:24:14;8.90;;;5.00;;
66127;SDS011;52925;52.436;-1.952;2022-09-09T01:26:21;10.50;;;5.40;;
66127;SDS011;52925;52.436;-1.952;2022-09-09T01:27:47;9.17;;;5.53;;
66127;SDS011;52925;52.436;-1.952;2022-09-09T01:29:09;7.73;;;5.47;;
66127;SDS011;52925;52.436;-1.952;2022-09-09T01:30:34;8.40;;;4.93;;
66127;SDS011;52925;52.436;-1.952;2022-09-09T01:31:59;8.70;;;5.10;;
66127;SDS011;52925;52.436;-1.952;2022-09-09T01:33:22;7.30;;;5.10;;
66127;SDS011;52925;52.436;-1.952;2022-09-09T01:34:42;10.53;;;5.30;;
66127;SDS011;52925;52.436;-1.952;2022-09-09T01:36:03;10.10;;;5.17;;
66127;SDS011;52925;52.436;-1.952;2022-09-09T01:37:35;8.00;;;4.93;;
66127;SDS011;52925;52.436;-1.952;2022-09-09T01:38:56;8.77;;;5.30;;
66127;SDS011;52925;52.436;-1.952;2022-09-09T01:40:18;9.30;;;5.43;;
66127;SDS011;52925;52.436;-1.952;2022-09-09T01:41:40;6.60;;;5.03;;
66127;SDS011;52925;52.436;-1.952;2022-09-09T01:43:04;8.57;;;4.67;;
66127;SDS011;52925;52.436;-1.952;2022-09-09T01:44:25;8.93;;;5.43;;
66127;SDS011;52925;52.436;-1.952;2022-09-09T01:45:48;7.87;;;4.93;;
66127;SDS011;52925;52.436;-1.952;2022-09-09T01:47:09;7.13;;;5.00;;
66127;SDS011;52925;52.436;-1.952;2022-09-09T01:48:46;6.77;;;5.03;;
66127;SDS011;52925;52.436;-1.952;2022-09-09T01:50:07;9.20;;;4.97;;
66127;SDS011;52925;52.436;-1.952;2022-09-09T01:51:31;8.90;;;4.90;;
66127;SDS011;52925;52.436;-1.952;2022-09-09T01:52:56;8.47;;;5.43;;
66127;SDS011;52925;52.436;-1.952;2022-09-09T01:54:25;7.27;;;4.73;;
66127;SDS011;52925;52.436;-1.952;2022-09-09T01:55:53;7.50;;;4.90;;
66127;SDS011;52925;52.436;-1.952;2022-09-09T01:57:24;8.43;;;5.80;;
66127;SDS011;52925;52.436;-1.952;2022-09-09T01:58:52;10.07;;;5.10;;
66127;SDS011;52925;52.436;-1.952;2022-09-09T02:00:42;9.30;;;5.40;;
66127;SDS011;52925;52.436;-1.952;2022-09-09T02:02:09;8.63;;;5.10;;
66127;SDS011;52925;52.436;-1.952;2022-09-09T02:03:36;7.90;;;5.80;;
66127;SDS011;52925;52.436;-1.952;2022-09-09T02:05:08;9.23;;;5.70;;
66127;SDS011;52925;52.436;-1.952;2022-09-09T02:06:38;10.80;;;5.60;;
66127;SDS011;52925;52.436;-1.952;2022-09-09T02:08:11;6.93;;;5.67;;
66127;SDS011;52925;52.436;-1.952;2022-09-09T02:09:47;6.87;;;5.43;;
66127;SDS011;52925;52.436;-1.952;2022-09-09T02:11:16;8.47;;;5.80;;
66127;SDS011;52925;52.436;-1.952;2022-09-09T02:12:47;9.23;;;6.00;;
66127;SDS011;52925;52.436;-1.952;2022-09-09T02:14:11;9.27;;;6.10;;
66127;SDS011;52925;52.436;-1.952;2022-09-09T02:15:40;8.70;;;6.03;;
66127;SDS011;52925;52.436;-1.952;2022-09-09T02:17:06;8.07;;;6.43;;
66127;SDS011;52925;52.436;-1.952;2022-09-09T02:18:47;7.67;;;6.13;;
66127;SDS011;52925;52.436;-1.952;2022-09-09T02:20:17;7.23;;;6.50;;
66127;SDS011;52925;52.436;-1.952;2022-09-09T02:21:50;9.50;;;7.03;;
66127;SDS011;52925;52.436;-1.952;2022-09-09T02:23:12;7.73;;;6.73;;
66127;SDS011;52925;52.436;-1.952;2022-09-09T02:24:34;7.33;;;6.47;;
66127;SDS011;52925;52.436;-1.952;2022-09-09T02:26:15;8.73;;;6.60;;
66127;SDS011;52925;52.436;-1.952;2022-09-09T02:27:45;8.20;;;7.20;;
66127;SDS011;52925;52.436;-1.952;2022-09-09T02:29:11;8.73;;;7.13;;
66127;SDS011;52925;52.436;-1.952;2022-09-09T02:30:34;9.37;;;7.03;;
66127;SDS011;52925;52.436;-1.952;2022-09-09T02:31:58;10.43;;;7.27;;
66127;SDS011;52925;52.436;-1.952;2022-09-09T02:33:26;11.97;;;7.50;;
66127;SDS011;52925;52.436;-1.952;2022-09-09T02:34:51;8.73;;;7.17;;
66127;SDS011;52925;52.436;-1.952;2022-09-09T02:36:16;9.17;;;7.00;;
66127;SDS011;52925;52.436;-1.952;2022-09-09T02:37:40;9.30;;;7.47;;
66127;SDS011;52925;52.436;-1.952;2022-09-09T02:39:02;9.10;;;7.40;;
66127;SDS011;52925;52.436;-1.952;2022-09-09T02:40:27;9.13;;;7.67;;
66127;SDS011;52925;52.436;-1.952;2022-09-09T02:41:54;8.50;;;7.53;;
66127;SDS011;52925;52.436;-1.952;2022-09-09T02:43:24;10.87;;;7.57;;
66127;SDS011;52925;52.436;-1.952;2022-09-09T02:44:45;10.97;;;8.10;;
66127;SDS011;52925;52.436;-1.952;2022-09-09T02:46:08;9.47;;;7.53;;
66127;SDS011;52925;52.436;-1.952;2022-09-09T02:47:43;11.57;;;7.57;;
66127;SDS011;52925;52.436;-1.952;2022-09-09T02:49:14;10.93;;;7.77;;
66127;SDS011;52925;52.436;-1.952;2022-09-09T02:50:39;9.67;;;7.93;;
66127;SDS011;52925;52.436;-1.952;2022-09-09T02:52:08;10.30;;;7.83;;
66127;SDS011;52925;52.436;-1.952;2022-09-09T02:53:36;11.83;;;8.50;;
66127;SDS011;52925;52.436;-1.952;2022-09-09T02:55:04;10.10;;;8.50;;
66127;SDS011;52925;52.436;-1.952;2022-09-09T02:56:31;13.70;;;8.67;;
66127;SDS011;52925;52.436;-1.952;2022-09-09T02:57:57;9.67;;;8.13;;
66127;SDS011;52925;52.436;-1.952;2022-09-09T02:59:22;12.07;;;8.63;;
66127;SDS011;52925;52.436;-1.952;2022-09-09T03:00:47;14.20;;;8.93;;
66127;SDS011;52925;52.436;-1.952;2022-09-09T03:02:11;10.30;;;8.27;;
66127;SDS011;52925;52.436;-1.952;2022-09-09T03:03:34;12.33;;;8.67;;
66127;SDS011;52925;52.436;-1.952;2022-09-09T03:05:00;10.37;;;8.63;;
66127;SDS011;52925;52.436;-1.952;2022-09-09T03:06:21;12.40;;;9.37;;
66127;SDS011;52925;52.436;-1.952;2022-09-09T03:07:47;14.47;;;9.63;;
66127;SDS011;52925;52.436;-1.952;2022-09-09T03:09:11;12.77;;;9.47;;
66127;SDS011;52925;52.436;-1.952;2022-09-09T03:10:31;14.43;;;9.50;;
66127;SDS011;52925;52.436;-1.952;2022-09-09T03:11:52;12.10;;;9.67;;
66127;SDS011;52925;52.436;-1.952;2022-09-09T03:13:14;13.00;;;9.47;;
66127;SDS011;52925;52.436;-1.952;2022-09-09T03:14:37;14.17;;;10.07;;
66127;SDS011;52925;52.436;-1.952;2022-09-09T03:15:57;11.80;;;9.77;;
66127;SDS011;52925;52.436;-1.952;2022-09-09T03:17:19;12.23;;;9.90;;
66127;SDS011;52925;52.436;-1.952;2022-09-09T03:18:44;14.47;;;10.17;;
66127;SDS011;52925;52.436;-1.952;2022-09-09T03:20:05;14.37;;;10.70;;
66127;SDS011;52925;52.436;-1.952;2022-09-09T03:21:28;14.13;;;10.03;;
66127;SDS011;52925;52.436;-1.952;2022-09-09T03:22:49;15.70;;;10.93;;
66127;SDS011;52925;52.436;-1.952;2022-09-09T03:24:09;14.83;;;11.37;;
66127;SDS011;52925;52.436;-1.952;2022-09-09T03:25:30;13.27;;;10.50;;
66127;SDS011;52925;52.436;-1.952;2022-09-09T03:26:51;17.60;;;11.70;;
66127;SDS011;52925;52.436;-1.952;2022-09-09T03:28:14;16.03;;;12.13;;
66127;SDS011;52925;52.436;-1.952;2022-09-09T03:29:36;14.77;;;11.83;;
66127;SDS011;52925;52.436;-1.952;2022-09-09T03:31:01;16.80;;;12.43;;
66127;SDS011;52925;52.436;-1.952;2022-09-09T03:32:25;15.30;;;12.03;;
66127;SDS011;52925;52.436;-1.952;2022-09-09T03:33:49;16.90;;;12.03;;
66127;SDS011;52925;52.436;-1.952;2022-09-09T03:35:10;13.73;;;11.80;;
66127;SDS011;52925;52.436;-1.952;2022-09-09T03:36:31;14.77;;;12.60;;
66127;SDS011;52925;52.436;-1.952;2022-09-09T03:37:52;16.10;;;12.07;;
66127;SDS011;52925;52.436;-1.952;2022-09-09T03:39:11;14.90;;;12.03;;
66127;SDS011;52925;52.436;-1.952;2022-09-09T03:40:34;15.07;;;12.43;;
66127;SDS011;52925;52.436;-1.952;2022-09-09T03:41:55;15.33;;;12.73;;
66127;SDS011;52925;52.436;-1.952;2022-09-09T03:43:16;15.20;;;12.57;;
66127;SDS011;52925;52.436;-1.952;2022-09-09T03:44:38;16.40;;;13.03;;
66127;SDS011;52925;52.436;-1.952;2022-09-09T03:45:59;17.57;;;13.23;;
66127;SDS011;52925;52.436;-1.952;2022-09-09T03:47:22;17.13;;;13.20;;
66127;SDS011;52925;52.436;-1.952;2022-09-09T03:48:44;16.00;;;12.93;;
66127;SDS011;52925;52.436;-1.952;2022-09-09T03:50:05;16.70;;;12.60;;
66127;SDS011;52925;52.436;-1.952;2022-09-09T03:51:28;16.37;;;13.00;;
66127;SDS011;52925;52.436;-1.952;2022-09-09T03:52:49;17.43;;;13.40;;
66127;SDS011;52925;52.436;-1.952;2022-09-09T03:54:13;16.10;;;13.33;;
66127;SDS011;52925;52.436;-1.952;2022-09-09T03:55:34;17.60;;;13.53;;
66127;SDS011;52925;52.436;-1.952;2022-09-09T03:56:54;15.77;;;12.83;;
66127;SDS011;52925;52.436;-1.952;2022-09-09T03:58:15;16.17;;;13.00;;
66127;SDS011;52925;52.436;-1.952;2022-09-09T03:59:38;17.00;;;13.43;;
66127;SDS011;52925;52.436;-1.952;2022-09-09T04:00:59;16.00;;;12.97;;
66127;SDS011;52925;52.436;-1.952;2022-09-09T04:02:22;15.97;;;13.00;;
66127;SDS011;52925;52.436;-1.952;2022-09-09T04:03:43;14.77;;;13.27;;
66127;SDS011;52925;52.436;-1.952;2022-09-09T04:05:03;19.27;;;14.20;;
66127;SDS011;52925;52.436;-1.952;2022-09-09T04:06:26;16.33;;;13.20;;
66127;SDS011;52925;52.436;-1.952;2022-09-09T04:07:46;17.10;;;13.87;;
66127;SDS011;52925;52.436;-1.952;2022-09-09T04:09:06;17.27;;;13.47;;
66127;SDS011;52925;52.436;-1.952;2022-09-09T04:10:27;17.43;;;13.33;;
66127;SDS011;52925;52.436;-1.952;2022-09-09T04:11:49;16.90;;;14.07;;
66127;SDS011;52925;52.436;-1.952;2022-09-09T04:13:11;16.87;;;13.43;;
66127;SDS011;52925;52.436;-1.952;2022-09-09T04:14:31;17.73;;;13.67;;
66127;SDS011;52925;52.436;-1.952;2022-09-09T04:15:53;16.83;;;13.53;;
66127;SDS011;52925;52.436;-1.952;2022-09-09T04:17:14;16.33;;;13.40;;
66127;SDS011;52925;52.436;-1.952;2022-09-09T04:18:35;16.93;;;14.03;;
66127;SDS011;52925;52.436;-1.952;2022-09-09T04:19:55;14.23;;;12.73;;
66127;SDS011;52925;52.436;-1.952;2022-09-09T04:21:17;17.57;;;14.07;;
66127;SDS011;52925;52.436;-1.952;2022-09-09T04:22:38;17.23;;;14.30;;
66127;SDS011;52925;52.436;-1.952;2022-09-09T04:23:59;17.23;;;14.10;;
66127;SDS011;52925;52.436;-1.952;2022-09-09T04:25:20;16.03;;;13.47;;
66127;SDS011;52925;52.436;-1.952;2022-09-09T04:26:39;16.90;;;14.23;;
66127;SDS011;52925;52.436;-1.952;2022-09-09T04:28:00;17.63;;;13.43;;
66127;SDS011;52925;52.436;-1.952;2022-09-09T04:29:22;17.70;;;14.30;;
66127;SDS011;52925;52.436;-1.952;2022-09-09T04:30:43;16.27;;;13.97;;
66127;SDS011;52925;52.436;-1.952;2022-09-09T04:32:06;18.97;;;14.87;;
66127;SDS011;52925;52.436;-1.952;2022-09-09T04:33:27;15.50;;;13.73;;
66127;SDS011;52925;52.436;-1.952;2022-09-09T04:34:47;16.83;;;14.80;;
66127;SDS011;52925;52.436;-1.952;2022-09-09T04:36:07;16.20;;;14.30;;
66127;SDS011;52925;52.436;-1.952;2022-09-09T04:37:28;16.73;;;13.77;;
66127;SDS011;52925;52.436;-1.952;2022-09-09T04:38:49;17.97;;;14.87;;
66127;SDS011;52925;52.436;-1.952;2022-09-09T04:40:10;17.27;;;14.10;;
66127;SDS011;52925;52.436;-1.952;2022-09-09T04:41:32;17.50;;;14.70;;
66127;SDS011;52925;52.436;-1.952;2022-09-09T04:42:52;18.13;;;14.60;;
66127;SDS011;52925;52.436;-1.952;2022-09-09T04:44:12;18.43;;;14.37;;
66127;SDS011;52925;52.436;-1.952;2022-09-09T04:45:34;16.80;;;13.60;;
66127;SDS011;52925;52.436;-1.952;2022-09-09T04:46:54;16.57;;;14.40;;
66127;SDS011;52925;52.436;-1.952;2022-09-09T04:48:16;16.73;;;14.43;;
66127;SDS011;52925;52.436;-1.952;2022-09-09T04:49:36;17.53;;;15.73;;
66127;SDS011;52925;52.436;-1.952;2022-09-09T04:50:59;18.50;;;14.90;;
66127;SDS011;52925;52.436;-1.952;2022-09-09T04:52:23;17.60;;;15.33;;
66127;SDS011;52925;52.436;-1.952;2022-09-09T04:53:44;16.23;;;14.47;;
66127;SDS011;52925;52.436;-1.952;2022-09-09T04:55:06;18.73;;;15.20;;
66127;SDS011;52925;52.436;-1.952;2022-09-09T04:56:27;17.90;;;14.37;;
66127;SDS011;52925;52.436;-1.952;2022-09-09T04:57:49;16.80;;;14.33;;
66127;SDS011;52925;52.436;-1.952;2022-09-09T04:59:09;16.17;;;14.47;;
66127;SDS011;52925;52.436;-1.952;2022-09-09T05:00:37;16.63;;;14.23;;
66127;SDS011;52925;52.436;-1.952;2022-09-09T05:02:00;17.90;;;15.17;;
66127;SDS011;52925;52.436;-1.952;2022-09-09T05:03:23;17.97;;;14.93;;
66127;SDS011;52925;52.436;-1.952;2022-09-09T05:04:43;18.57;;;15.20;;
66127;SDS011;52925;52.436;-1.952;2022-09-09T05:06:05;16.83;;;14.73;;
66127;SDS011;52925;52.436;-1.952;2022-09-09T05:07:29;19.43;;;14.87;;
66127;SDS011;52925;52.436;-1.952;2022-09-09T05:08:50;20.07;;;15.37;;
66127;SDS011;52925;52.436;-1.952;2022-09-09T05:10:16;20.33;;;16.73;;
66127;SDS011;52925;52.436;-1.952;2022-09-09T05:11:38;18.33;;;15.37;;
66127;SDS011;52925;52.436;-1.952;2022-09-09T05:13:08;17.67;;;15.37;;
66127;SDS011;52925;52.436;-1.952;2022-09-09T05:14:30;16.13;;;14.43;;
66127;SDS011;52925;52.436;-1.952;2022-09-09T05:15:52;19.43;;;16.10;;
66127;SDS011;52925;52.436;-1.952;2022-09-09T05:17:12;18.87;;;15.97;;
66127;SDS011;52925;52.436;-1.952;2022-09-09T05:18:35;18.30;;;16.40;;
66127;SDS011;52925;52.436;-1.952;2022-09-09T05:19:56;19.50;;;16.00;;
66127;SDS011;52925;52.436;-1.952;2022-09-09T05:21:18;19.53;;;16.33;;
66127;SDS011;52925;52.436;-1.952;2022-09-09T05:22:39;19.77;;;16.00;;
66127;SDS011;52925;52.436;-1.952;2022-09-09T05:24:00;21.10;;;16.77;;
66127;SDS011;52925;52.436;-1.952;2022-09-09T05:25:21;20.70;;;16.77;;
66127;SDS011;52925;52.436;-1.952;2022-09-09T05:26:43;19.77;;;16.67;;
66127;SDS011;52925;52.436;-1.952;2022-09-09T05:28:03;19.43;;;16.70;;
66127;SDS011;52925;52.436;-1.952;2022-09-09T05:29:27;21.50;;;17.00;;
66127;SDS011;52925;52.436;-1.952;2022-09-09T05:30:54;22.23;;;17.47;;
66127;SDS011;52925;52.436;-1.952;2022-09-09T05:32:16;23.00;;;17.30;;
66127;SDS011;52925;52.436;-1.952;2022-09-09T05:33:42;22.03;;;17.77;;
66127;SDS011;52925;52.436;-1.952;2022-09-09T05:35:04;22.47;;;17.43;;
66127;SDS011;52925;52.436;-1.952;2022-09-09T05:36:25;20.63;;;16.93;;
66127;SDS011;52925;52.436;-1.952;2022-09-09T05:37:48;22.63;;;18.17;;
66127;SDS011;52925;52.436;-1.952;2022-09-09T05:39:08;22.57;;;17.87;;
66127;SDS011;52925;52.436;-1.952;2022-09-09T05:40:30;23.17;;;18.00;;
66127;SDS011;52925;52.436;-1.952;2022-09-09T05:41:51;23.30;;;18.57;;
66127;SDS011;52925;52.436;-1.952;2022-09-09T05:43:11;22.57;;;17.73;;
66127;SDS011;52925;52.436;-1.952;2022-09-09T05:44:33;24.47;;;18.33;;
66127;SDS011;52925;52.436;-1.952;2022-09-09T05:46:01;25.67;;;18.00;;
66127;SDS011;52925;52.436;-1.952;2022-09-09T05:47:24;23.57;;;18.87;;
66127;SDS011;52925;52.436;-1.952;2022-09-09T05:48:49;21.87;;;18.03;;
66127;SDS011;52925;52.436;-1.952;2022-09-09T05:50:09;21.97;;;18.27;;
66127;SDS011;52925;52.436;-1.952;2022-09-09T05:51:31;25.53;;;19.40;;
66127;SDS011;52925;52.436;-1.952;2022-09-09T05:52:57;26.40;;;19.23;;
66127;SDS011;52925;52.436;-1.952;2022-09-09T05:54:18;23.83;;;18.23;;
66127;SDS011;52925;52.436;-1.952;2022-09-09T05:55:41;24.30;;;19.20;;
66127;SDS011;52925;52.436;-1.952;2022-09-09T05:57:03;21.83;;;18.17;;
66127;SDS011;52925;52.436;-1.952;2022-09-09T05:58:25;25.63;;;18.30;;
66127;SDS011;52925;52.436;-1.952;2022-09-09T05:59:46;25.27;;;18.83;;
66127;SDS011;52925;52.436;-1.952;2022-09-09T06:01:07;23.00;;;18.73;;
66127;SDS011;52925;52.436;-1.952;2022-09-09T06:02:29;26.33;;;20.10;;
66127;SDS011;52925;52.436;-1.952;2022-09-09T06:03:53;24.83;;;19.17;;
66127;SDS011;52925;52.436;-1.952;2022-09-09T06:05:16;25.13;;;19.17;;
66127;SDS011;52925;52.436;-1.952;2022-09-09T06:06:37;26.23;;;19.93;;
66127;SDS011;52925;52.436;-1.952;2022-09-09T06:08:04;26.33;;;19.87;;
66127;SDS011;52925;52.436;-1.952;2022-09-09T06:09:23;24.40;;;19.73;;
66127;SDS011;52925;52.436;-1.952;2022-09-09T06:10:44;24.43;;;19.70;;
66127;SDS011;52925;52.436;-1.952;2022-09-09T06:12:05;26.03;;;20.90;;
66127;SDS011;52925;52.436;-1.952;2022-09-09T06:13:28;24.07;;;19.73;;
66127;SDS011;52925;52.436;-1.952;2022-09-09T06:14:49;26.80;;;19.80;;
66127;SDS011;52925;52.436;-1.952;2022-09-09T06:16:12;27.20;;;20.27;;
66127;SDS011;52925;52.436;-1.952;2022-09-09T06:17:35;26.07;;;20.17;;
66127;SDS011;52925;52.436;-1.952;2022-09-09T06:18:56;30.77;;;20.63;;
66127;SDS011;52925;52.436;-1.952;2022-09-09T06:20:18;28.80;;;21.83;;
66127;SDS011;52925;52.436;-1.952;2022-09-09T06:21:40;27.27;;;20.90;;
66127;SDS011;52925;52.436;-1.952;2022-09-09T06:23:03;28.33;;;21.80;;
66127;SDS011;52925;52.436;-1.952;2022-09-09T06:24:24;26.53;;;20.53;;
66127;SDS011;52925;52.436;-1.952;2022-09-09T06:25:46;26.60;;;20.23;;
66127;SDS011;52925;52.436;-1.952;2022-09-09T06:27:05;29.57;;;21.97;;
66127;SDS011;52925;52.436;-1.952;2022-09-09T06:28:28;30.23;;;21.90;;
66127;SDS011;52925;52.436;-1.952;2022-09-09T06:29:48;28.53;;;22.10;;
66127;SDS011;52925;52.436;-1.952;2022-09-09T06:31:10;28.20;;;21.27;;
66127;SDS011;52925;52.436;-1.952;2022-09-09T06:32:32;26.23;;;20.50;;
66127;SDS011;52925;52.436;-1.952;2022-09-09T06:33:58;29.00;;;21.37;;
66127;SDS011;52925;52.436;-1.952;2022-09-09T06:35:20;26.13;;;20.70;;
66127;SDS011;52925;52.436;-1.952;2022-09-09T06:36:39;27.53;;;21.63;;
66127;SDS011;52925;52.436;-1.952;2022-09-09T06:38:01;27.17;;;21.23;;
66127;SDS011;52925;52.436;-1.952;2022-09-09T06:39:20;27.97;;;21.53;;
66127;SDS011;52925;52.436;-1.952;2022-09-09T06:40:42;26.93;;;21.27;;
66127;SDS011;52925;52.436;-1.952;2022-09-09T06:42:03;28.27;;;21.70;;
66127;SDS011;52925;52.436;-1.952;2022-09-09T06:43:47;29.47;;;21.20;;
66127;SDS011;52925;52.436;-1.952;2022-09-09T06:45:09;25.73;;;20.47;;
66127;SDS011;52925;52.436;-1.952;2022-09-09T06:46:37;27.60;;;21.27;;
66127;SDS011;52925;52.436;-1.952;2022-09-09T06:47:59;29.30;;;21.50;;
66127;SDS011;52925;52.436;-1.952;2022-09-09T06:49:20;27.03;;;20.50;;
66127;SDS011;52925;52.436;-1.952;2022-09-09T06:50:40;28.83;;;21.60;;
66127;SDS011;52925;52.436;-1.952;2022-09-09T06:52:02;26.93;;;21.27;;
66127;SDS011;52925;52.436;-1.952;2022-09-09T06:53:23;24.47;;;19.77;;
66127;SDS011;52925;52.436;-1.952;2022-09-09T06:54:45;26.43;;;21.20;;
66127;SDS011;52925;52.436;-1.952;2022-09-09T06:56:17;27.30;;;20.77;;
66127;SDS011;52925;52.436;-1.952;2022-09-09T06:57:39;27.57;;;21.27;;
66127;SDS011;52925;52.436;-1.952;2022-09-09T06:59:14;27.13;;;21.23;;
66127;SDS011;52925;52.436;-1.952;2022-09-09T07:00:34;28.03;;;19.97;;
66127;SDS011;52925;52.436;-1.952;2022-09-09T07:01:56;25.90;;;21.50;;
66127;SDS011;52925;52.436;-1.952;2022-09-09T07:03:17;26.33;;;20.87;;
66127;SDS011;52925;52.436;-1.952;2022-09-09T07:04:40;26.33;;;20.53;;
66127;SDS011;52925;52.436;-1.952;2022-09-09T07:06:02;26.13;;;20.43;;
66127;SDS011;52925;52.436;-1.952;2022-09-09T07:07:23;26.67;;;20.30;;
66127;SDS011;52925;52.436;-1.952;2022-09-09T07:08:48;26.10;;;20.77;;
66127;SDS011;52925;52.436;-1.952;2022-09-09T07:10:09;27.67;;;20.93;;
66127;SDS011;52925;52.436;-1.952;2022-09-09T07:11:31;27.97;;;21.23;;
66127;SDS011;52925;52.436;-1.952;2022-09-09T07:12:53;25.27;;;20.40;;
66127;SDS011;52925;52.436;-1.952;2022-09-09T07:14:17;25.87;;;20.20;;
66127;SDS011;52925;52.436;-1.952;2022-09-09T07:15:40;25.87;;;20.30;;
66127;SDS011;52925;52.436;-1.952;2022-09-09T07:17:01;22.90;;;19.83;;
66127;SDS011;52925;52.436;-1.952;2022-09-09T07:18:26;26.70;;;20.03;;
66127;SDS011;52925;52.436;-1.952;2022-09-09T07:19:48;25.50;;;19.57;;
66127;SDS011;52925;52.436;-1.952;2022-09-09T07:21:10;25.00;;;19.87;;
66127;SDS011;52925;52.436;-1.952;2022-09-09T07:22:31;24.90;;;19.70;;
66127;SDS011;52925;52.436;-1.952;2022-09-09T07:23:52;24.63;;;19.57;;
66127;SDS011;52925;52.436;-1.952;2022-09-09T07:25:13;24.07;;;19.47;;
66127;SDS011;52925;52.436;-1.952;2022-09-09T07:26:37;26.17;;;20.23;;
66127;SDS011;52925;52.436;-1.952;2022-09-09T07:27:59;24.97;;;19.27;;
66127;SDS011;52925;52.436;-1.952;2022-09-09T07:29:19;24.60;;;19.90;;
66127;SDS011;52925;52.436;-1.952;2022-09-09T07:30:42;23.80;;;19.27;;
66127;SDS011;52925;52.436;-1.952;2022-09-09T07:32:03;25.97;;;19.83;;
66127;SDS011;52925;52.436;-1.952;2022-09-09T07:33:28;23.40;;;19.20;;
66127;SDS011;52925;52.436;-1.952;2022-09-09T07:34:52;25.10;;;19.27;;
66127;SDS011;52925;52.436;-1.952;2022-09-09T07:36:14;24.37;;;19.40;;
66127;SDS011;52925;52.436;-1.952;2022-09-09T07:37:36;23.90;;;18.97;;
66127;SDS011;52925;52.436;-1.952;2022-09-09T07:38:58;22.90;;;17.80;;
66127;SDS011;52925;52.436;-1.952;2022-09-09T07:40:22;26.30;;;19.93;;
66127;SDS011;52925;52.436;-1.952;2022-09-09T07:41:43;26.50;;;19.73;;
66127;SDS011;52925;52.436;-1.952;2022-09-09T07:43:06;22.57;;;19.17;;
66127;SDS011;52925;52.436;-1.952;2022-09-09T07:44:27;25.07;;;19.40;;
66127;SDS011;52925;52.436;-1.952;2022-09-09T07:46:02;26.03;;;20.43;;
66127;SDS011;52925;52.436;-1.952;2022-09-09T07:47:23;23.47;;;18.80;;
66127;SDS011;52925;52.436;-1.952;2022-09-09T07:48:44;25.27;;;18.43;;
66127;SDS011;52925;52.436;-1.952;2022-09-09T07:50:07;25.70;;;18.80;;
66127;SDS011;52925;52.436;-1.952;2022-09-09T07:51:29;22.43;;;18.43;;
66127;SDS011;52925;52.436;-1.952;2022-09-09T07:52:51;22.67;;;18.07;;
66127;SDS011;52925;52.436;-1.952;2022-09-09T07:54:14;22.83;;;18.07;;
66127;SDS011;52925;52.436;-1.952;2022-09-09T07:55:40;21.33;;;17.03;;
66127;SDS011;52925;52.436;-1.952;2022-09-09T07:57:02;21.50;;;18.13;;
66127;SDS011;52925;52.436;-1.952;2022-09-09T07:58:25;22.00;;;18.20;;
66127;SDS011;52925;52.436;-1.952;2022-09-09T07:59:45;22.57;;;17.33;;
66127;SDS011;52925;52.436;-1.952;2022-09-09T08:01:07;24.17;;;17.50;;
66127;SDS011;52925;52.436;-1.952;2022-09-09T08:02:29;26.13;;;17.83;;
66127;SDS011;52925;52.436;-1.952;2022-09-09T08:03:53;21.67;;;17.40;;
66127;SDS011;52925;52.436;-1.952;2022-09-09T08:05:19;23.83;;;16.93;;
66127;SDS011;52925;52.436;-1.952;2022-09-09T08:06:42;22.43;;;17.50;;
66127;SDS011;52925;52.436;-1.952;2022-09-09T08:08:06;20.73;;;16.60;;
66127;SDS011;52925;52.436;-1.952;2022-09-09T08:09:28;23.57;;;17.43;;
66127;SDS011;52925;52.436;-1.952;2022-09-09T08:11:01;19.27;;;15.90;;